createdAt,value
2023-02-02T00:01:35.544Z,78.00
2023-02-02T00:04:03.810Z,78.40
2023-02-02T00:06:32.489Z,78.50
2023-02-02T00:09:02.269Z,78.40
2023-02-02T00:11:29.189Z,78.50
2023-02-02T00:13:56.156Z,78.90
2023-02-02T00:16:29.096Z,78.50
2023-02-02T00:19:07.173Z,77.20
2023-02-02T00:21:34.169Z,77.70
2023-02-02T00:24:01.675Z,78.10
2023-02-02T00:26:29.014Z,78.00
2023-02-02T00:28:55.897Z,78.00
2023-02-02T00:31:23.440Z,78.50
2023-02-02T00:33:51.505Z,78.40
2023-02-02T00:36:20.874Z,78.40
2023-02-02T00:38:50.860Z,78.50
2023-02-02T00:41:17.954Z,78.40
2023-02-02T00:43:45.328Z,78.50
2023-02-02T00:46:18.866Z,78.40
2023-02-02T00:48:45.769Z,77.60
2023-02-02T00:51:12.631Z,78.20
2023-02-02T00:53:39.466Z,78.20
2023-02-02T00:56:06.938Z,78.20
2023-02-02T00:58:34.130Z,78.10
2023-02-02T01:01:01.558Z,78.30
2023-02-02T01:03:29.858Z,78.30
2023-02-02T01:05:56.762Z,78.20
2023-02-02T01:08:23.576Z,78.30
2023-02-02T01:10:50.391Z,78.20
2023-02-02T01:13:17.239Z,78.40
2023-02-02T01:15:44.088Z,78.60
2023-02-02T01:18:11.007Z,78.70
2023-02-02T01:20:38.060Z,79.00
2023-02-02T01:23:04.824Z,79.40
2023-02-02T01:25:32.735Z,79.60
2023-02-02T01:27:59.584Z,79.80
2023-02-02T01:30:26.457Z,80.10
2023-02-02T01:32:53.360Z,80.40
2023-02-02T01:35:20.195Z,80.70
2023-02-02T01:37:47.042Z,80.90
2023-02-02T01:40:14.205Z,81.30
2023-02-02T01:42:41.049Z,81.50
2023-02-02T01:45:19.468Z,81.70
2023-02-02T01:47:53.019Z,81.90
2023-02-02T01:50:26.943Z,81.70
2023-02-02T01:52:58.355Z,82.10
2023-02-02T01:55:29.972Z,82.20
2023-02-02T01:58:08.615Z,82.40
2023-02-02T02:00:36.789Z,82.10
2023-02-02T02:03:15.738Z,82.80
2023-02-02T02:05:50.722Z,82.60
2023-02-02T02:08:47.503Z,82.80
2023-02-02T02:11:14.971Z,82.10
2023-02-02T02:14:00.561Z,83.20
2023-02-02T02:17:23.715Z,83.30
2023-02-02T02:20:39.233Z,82.60
2023-02-02T02:23:52.362Z,81.80
2023-02-02T02:26:41.182Z,83.10
2023-02-02T02:29:48.405Z,82.20
2023-02-02T02:32:42.205Z,81.20
2023-02-02T02:36:04.355Z,82.60
2023-02-02T02:38:41.200Z,82.40
2023-02-02T02:41:19.115Z,83.40
2023-02-02T02:44:12.404Z,83.10
2023-02-02T02:46:39.628Z,83.30
2023-02-02T02:49:10.260Z,83.60
2023-02-02T02:51:49.594Z,83.40
2023-02-02T02:54:46.471Z,82.50
2023-02-02T02:57:34.996Z,82.70
2023-02-02T03:00:21.989Z,83.90
2023-02-02T03:03:29.915Z,83.40
2023-02-02T03:06:28.958Z,80.80
2023-02-02T03:09:04.939Z,83.50
2023-02-02T03:11:31.941Z,83.20
2023-02-02T03:13:58.873Z,83.80
2023-02-02T03:16:25.817Z,83.80
2023-02-02T03:18:52.783Z,83.70
2023-02-02T03:21:19.627Z,83.80
2023-02-02T03:23:46.456Z,83.90
2023-02-02T03:26:13.696Z,83.70
2023-02-02T03:28:41.761Z,83.10
2023-02-02T03:31:08.760Z,82.50
2023-02-02T03:33:38.071Z,82.30
2023-02-02T03:36:05.881Z,82.00
2023-02-02T03:41:13.497Z,82.30
2023-02-02T03:43:40.303Z,82.40
2023-02-02T03:46:07.228Z,82.40
2023-02-02T03:48:39.119Z,82.90
2023-02-02T03:51:12.391Z,81.90
2023-02-02T03:53:44.276Z,82.50
2023-02-02T03:56:11.213Z,82.60
2023-02-02T03:58:38.043Z,82.80
2023-02-02T04:01:07.641Z,83.20
2023-02-02T04:03:34.996Z,83.30
2023-02-02T04:06:01.891Z,83.60
2023-02-02T04:08:28.914Z,83.80
2023-02-02T04:10:56.649Z,83.70
2023-02-02T04:13:23.506Z,83.70
2023-02-02T04:16:00.169Z,83.70
2023-02-02T04:18:27.491Z,83.30
2023-02-02T04:21:02.187Z,83.60
2023-02-02T04:23:30.795Z,83.30
2023-02-02T04:26:00.057Z,83.40
2023-02-02T04:28:28.463Z,83.40
2023-02-02T04:30:56.730Z,83.50
2023-02-02T04:33:26.973Z,83.40
2023-02-02T04:35:54.797Z,83.50
2023-02-02T04:38:21.896Z,83.50
2023-02-02T04:40:49.523Z,83.70
2023-02-02T04:43:16.448Z,83.60
2023-02-02T04:45:43.599Z,83.40
2023-02-02T04:48:10.921Z,83.40
2023-02-02T04:50:37.857Z,83.40
2023-02-02T04:53:05.424Z,83.40
2023-02-02T04:55:37.763Z,83.50
2023-02-02T04:58:06.170Z,83.40
2023-02-02T05:00:33.214Z,83.90
2023-02-02T05:03:01.393Z,84.20
2023-02-02T05:05:28.336Z,84.20
2023-02-02T05:07:55.134Z,84.50
2023-02-02T05:10:22.044Z,84.60
2023-02-02T05:12:48.892Z,84.50
2023-02-02T05:15:15.916Z,84.70
2023-02-02T05:17:42.810Z,84.70
2023-02-02T05:20:10.691Z,84.70
2023-02-02T05:22:37.516Z,84.60
2023-02-02T05:25:06.108Z,84.50
2023-02-02T05:27:33.246Z,84.30
2023-02-02T05:30:00.374Z,84.10
2023-02-02T05:32:29.758Z,83.90
2023-02-02T05:34:56.622Z,84.00
2023-02-02T05:37:23.450Z,84.00
2023-02-02T05:39:52.173Z,83.80
2023-02-02T05:42:19.147Z,83.60
2023-02-02T05:44:46.088Z,83.30
2023-02-02T05:47:13.248Z,83.10
2023-02-02T05:49:40.520Z,83.10
2023-02-02T05:52:07.761Z,83.30
2023-02-02T05:54:34.679Z,83.30
2023-02-02T05:57:03.145Z,83.60
2023-02-02T05:59:30.016Z,83.80
2023-02-02T06:01:56.949Z,83.90
2023-02-02T06:04:23.929Z,84.10
2023-02-02T06:06:50.791Z,84.10
2023-02-02T06:09:17.706Z,84.30
2023-02-02T06:11:45.811Z,84.30
2023-02-02T06:14:13.003Z,84.50
2023-02-02T06:16:39.833Z,84.70
2023-02-02T06:19:06.759Z,84.90
2023-02-02T06:21:33.822Z,84.90
2023-02-02T06:24:02.043Z,85.00
2023-02-02T06:26:29.274Z,84.80
2023-02-02T06:28:56.181Z,84.80
2023-02-02T06:31:23.609Z,84.80
2023-02-02T06:33:56.935Z,84.90
2023-02-02T06:36:26.901Z,84.60
2023-02-02T06:38:56.971Z,85.20
2023-02-02T06:41:24.748Z,85.30
2023-02-02T06:43:52.779Z,85.60
2023-02-02T06:46:19.804Z,85.80
2023-02-02T06:48:46.730Z,85.80
2023-02-02T06:51:13.642Z,85.80
2023-02-02T06:53:40.489Z,85.70
2023-02-02T06:56:12.747Z,85.70
2023-02-02T06:58:39.924Z,85.70
2023-02-02T07:01:13.901Z,85.70
2023-02-02T07:03:41.724Z,85.50
2023-02-02T07:06:29.390Z,85.40
2023-02-02T07:09:02.654Z,83.70
2023-02-02T07:11:33.837Z,85.40
2023-02-02T07:14:02.742Z,85.70
2023-02-02T07:16:30.490Z,86.40
2023-02-02T07:18:57.704Z,86.60
2023-02-02T07:21:29.355Z,86.80
2023-02-02T07:23:56.237Z,86.70
2023-02-02T07:26:23.233Z,86.70
2023-02-02T07:28:50.598Z,86.60
2023-02-02T07:31:25.207Z,86.50
2023-02-02T07:33:53.127Z,86.20
2023-02-02T07:36:23.865Z,86.20
2023-02-02T07:38:57.357Z,85.50
2023-02-02T07:41:25.204Z,84.10
2023-02-02T07:43:52.440Z,84.50
2023-02-02T07:46:20.385Z,84.50
2023-02-02T07:48:47.916Z,84.50
2023-02-02T07:51:17.472Z,84.40
2023-02-02T07:53:50.514Z,84.30
2023-02-02T07:56:20.970Z,84.50
2023-02-02T07:58:48.576Z,84.50
2023-02-02T08:01:16.451Z,84.50
2023-02-02T08:03:44.159Z,84.50
2023-02-02T08:06:28.475Z,84.90
2023-02-02T08:08:55.617Z,83.60
2023-02-02T08:11:24.643Z,84.30
2023-02-02T08:13:54.477Z,84.40
2023-02-02T08:16:22.444Z,83.80
2023-02-02T08:18:50.059Z,84.00
2023-02-02T08:21:18.282Z,84.10
2023-02-02T08:23:48.329Z,84.20
2023-02-02T08:26:23.074Z,84.60
2023-02-02T08:28:55.612Z,84.40
2023-02-02T08:31:30.504Z,84.40
2023-02-02T08:34:00.510Z,84.80
2023-02-02T08:36:30.249Z,84.70
2023-02-02T08:39:03.329Z,84.70
2023-02-02T08:41:31.015Z,84.70
2023-02-02T08:43:58.496Z,84.60
2023-02-02T08:46:26.321Z,84.80
2023-02-02T08:48:53.305Z,84.90
2023-02-02T08:51:20.820Z,85.00
2023-02-02T08:53:48.004Z,85.10
2023-02-02T08:56:18.676Z,84.80
2023-02-02T08:58:55.603Z,84.30
2023-02-02T09:01:31.931Z,83.10
2023-02-02T09:04:08.702Z,83.30
2023-02-02T09:06:39.286Z,83.40
2023-02-02T09:09:10.422Z,83.40
2023-02-02T09:11:37.990Z,83.50
2023-02-02T09:14:06.544Z,83.90
2023-02-02T09:16:35.701Z,84.00
2023-02-02T09:19:03.552Z,84.40
2023-02-02T09:21:30.748Z,84.70
2023-02-02T09:23:57.580Z,84.90
2023-02-02T09:26:29.304Z,85.40
2023-02-02T09:29:03.111Z,85.10
2023-02-02T09:31:34.122Z,85.40
2023-02-02T09:34:07.991Z,85.40
2023-02-02T09:36:35.520Z,85.50
2023-02-02T09:39:03.266Z,85.70
2023-02-02T09:41:39.151Z,85.80
2023-02-02T09:44:24.056Z,84.90
2023-02-02T09:47:12.593Z,84.90
2023-02-02T09:49:55.048Z,85.30
2023-02-02T09:53:05.303Z,85.70
2023-02-02T09:55:41.619Z,84.80
2023-02-02T09:58:29.297Z,85.30
2023-02-02T10:01:14.915Z,85.20
2023-02-02T10:04:01.256Z,85.60
2023-02-02T10:06:44.627Z,85.70
2023-02-02T10:09:28.064Z,85.20
2023-02-02T10:12:18.488Z,84.90
2023-02-02T10:15:20.491Z,84.60
2023-02-02T10:18:14.918Z,84.60
2023-02-02T10:21:01.787Z,85.70
2023-02-02T10:23:44.238Z,85.60
2023-02-02T10:26:48.229Z,86.00
2023-02-02T10:29:21.787Z,86.60
2023-02-02T10:32:22.476Z,85.90
2023-02-02T10:35:12.909Z,86.00
2023-02-02T10:38:07.430Z,86.10
2023-02-02T10:41:01.723Z,86.10
2023-02-02T10:44:11.868Z,85.00
2023-02-02T10:46:45.277Z,84.30
2023-02-02T10:49:39.345Z,85.80
2023-02-02T10:52:24.238Z,85.60
2023-02-02T10:55:04.516Z,84.40
2023-02-02T10:57:49.180Z,85.50
2023-02-02T11:00:51.146Z,84.60
2023-02-02T11:03:23.065Z,85.70
2023-02-02T11:06:08.347Z,85.50
2023-02-02T11:08:43.494Z,85.10
2023-02-02T11:11:42.194Z,84.30
2023-02-02T11:14:09.424Z,83.70
2023-02-02T11:16:44.050Z,85.20
2023-02-02T11:19:17.343Z,85.90
2023-02-02T11:22:04.526Z,85.10
2023-02-02T11:25:01.146Z,85.20
2023-02-02T11:27:35.095Z,85.30
2023-02-02T11:30:34.584Z,85.30
2023-02-02T11:33:36.061Z,85.00
2023-02-02T11:36:23.175Z,84.30
2023-02-02T11:39:21.663Z,84.50
2023-02-02T11:41:48.689Z,86.20
2023-02-02T11:44:30.177Z,86.10
2023-02-02T11:46:57.537Z,84.10
2023-02-02T11:49:25.358Z,85.10
2023-02-02T11:52:07.647Z,84.80
2023-02-02T11:54:37.723Z,83.60
2023-02-02T11:57:09.942Z,84.70
2023-02-02T11:59:40.211Z,84.70
2023-02-02T12:02:31.859Z,85.10
2023-02-02T12:05:10.858Z,84.50
2023-02-02T12:07:38.316Z,84.90
2023-02-02T12:10:38.824Z,86.10
2023-02-02T12:13:31.960Z,84.80
2023-02-02T12:16:27.372Z,85.30
2023-02-02T12:19:13.658Z,84.20
2023-02-02T12:22:04.754Z,84.10
2023-02-02T12:24:41.442Z,83.20
2023-02-02T12:27:34.167Z,84.60
2023-02-02T12:30:42.721Z,84.70
2023-02-02T12:33:35.376Z,84.10
2023-02-02T12:36:20.267Z,84.10
2023-02-02T12:39:17.957Z,84.70
2023-02-02T12:42:15.573Z,84.30
2023-02-02T12:45:13.776Z,85.00
2023-02-02T12:48:13.503Z,84.00
2023-02-02T12:50:57.833Z,84.50
2023-02-02T12:53:42.790Z,84.70
2023-02-02T12:56:40.634Z,84.90
2023-02-02T13:00:04.945Z,84.90
2023-02-02T13:02:53.438Z,84.80
2023-02-02T13:05:58.328Z,85.40
2023-02-02T13:08:58.335Z,84.70
2023-02-02T13:11:40.954Z,84.90
2023-02-02T13:14:18.927Z,85.60
2023-02-02T13:16:53.387Z,84.90
2023-02-02T13:19:40.123Z,85.10
2023-02-02T13:22:17.089Z,84.90
2023-02-02T13:24:49.654Z,85.20
2023-02-02T13:27:21.627Z,85.00
2023-02-02T13:30:00.094Z,85.60
2023-02-02T13:32:45.250Z,85.00
2023-02-02T13:35:34.073Z,85.10
2023-02-02T13:38:21.341Z,84.70
2023-02-02T13:40:51.039Z,85.50
2023-02-02T13:43:46.050Z,85.60
2023-02-02T13:46:41.455Z,85.00
2023-02-02T13:49:36.822Z,85.90
2023-02-02T13:52:46.843Z,85.60
2023-02-02T13:55:35.752Z,85.60
2023-02-02T13:58:49.273Z,86.00
2023-02-02T14:01:18.398Z,85.40
2023-02-02T14:03:55.290Z,85.90
2023-02-02T14:06:25.693Z,85.60
2023-02-02T14:09:01.554Z,86.00
2023-02-02T14:11:32.581Z,86.10
2023-02-02T14:14:32.688Z,86.30
2023-02-02T14:17:28.585Z,85.60
2023-02-02T14:20:01.280Z,86.20
2023-02-02T14:22:50.915Z,86.40
2023-02-02T14:25:33.886Z,85.80
2023-02-02T14:28:09.028Z,85.30
2023-02-02T14:30:38.706Z,86.50
2023-02-02T14:33:20.952Z,86.60
2023-02-02T14:35:47.677Z,86.00
2023-02-02T14:38:48.339Z,86.70
2023-02-02T14:41:44.338Z,86.70
2023-02-02T14:44:11.318Z,86.50
2023-02-02T14:46:41.205Z,86.70
2023-02-02T14:49:14.515Z,86.70
2023-02-02T14:51:53.198Z,86.70
2023-02-02T14:54:27.843Z,86.70
2023-02-02T14:57:02.514Z,87.00
2023-02-02T14:59:40.469Z,87.00
2023-02-02T15:02:33.007Z,86.50
2023-02-02T15:05:33.305Z,86.60
2023-02-02T15:08:23.668Z,86.50
2023-02-02T15:10:53.601Z,86.50
2023-02-02T15:13:42.353Z,86.80
2023-02-02T15:16:25.447Z,86.30
2023-02-02T15:19:23.154Z,86.70
2023-02-02T15:21:54.656Z,87.00
2023-02-02T15:24:27.139Z,87.20
2023-02-02T15:26:55.729Z,87.00
2023-02-02T15:29:42.070Z,87.30
2023-02-02T15:32:20.358Z,87.10
2023-02-02T15:34:53.751Z,87.20
2023-02-02T15:37:31.884Z,87.30
2023-02-02T15:40:02.664Z,87.80
2023-02-02T15:42:54.953Z,87.10
2023-02-02T15:45:48.984Z,86.00
2023-02-02T15:48:25.433Z,87.00
2023-02-02T15:50:57.497Z,86.90
2023-02-02T15:53:52.038Z,87.20
2023-02-02T15:56:24.815Z,87.00
2023-02-02T15:58:55.068Z,87.20
2023-02-02T16:01:25.948Z,87.30
2023-02-02T16:04:08.487Z,87.30
2023-02-02T16:06:35.949Z,87.10
2023-02-02T16:09:05.593Z,87.80
2023-02-02T16:11:32.932Z,87.30
2023-02-02T16:14:19.176Z,87.30
2023-02-02T16:16:49.506Z,87.40
2023-02-02T16:19:25.385Z,87.20
2023-02-02T16:22:03.332Z,87.20
2023-02-02T16:25:00.891Z,87.00
2023-02-02T16:27:30.694Z,86.80
2023-02-02T16:30:05.373Z,87.40
2023-02-02T16:32:42.117Z,87.50
2023-02-02T16:35:35.662Z,87.60
2023-02-02T16:38:31.129Z,86.50
2023-02-02T16:41:07.278Z,87.20
2023-02-02T16:43:37.889Z,87.50
2023-02-02T16:46:17.991Z,87.80
2023-02-02T16:49:00.418Z,87.50
2023-02-02T16:51:29.122Z,87.90
2023-02-02T16:53:55.841Z,88.00
2023-02-02T16:56:38.479Z,88.60
2023-02-02T16:59:28.499Z,87.60
2023-02-02T17:02:03.796Z,87.50
2023-02-02T17:04:35.092Z,88.20
2023-02-02T17:07:15.929Z,88.00
2023-02-02T17:09:45.918Z,87.70
2023-02-02T17:12:32.732Z,86.70
2023-02-02T17:15:20.793Z,87.90
2023-02-02T17:17:49.130Z,86.80
2023-02-02T17:20:18.196Z,88.10
2023-02-02T17:22:50.075Z,88.20
2023-02-02T17:25:26.228Z,88.10
2023-02-02T17:27:55.719Z,88.10
2023-02-02T17:30:22.972Z,88.30
2023-02-02T17:32:49.815Z,88.30
2023-02-02T17:35:22.631Z,88.20
2023-02-02T17:37:52.272Z,88.00
2023-02-02T17:40:22.297Z,88.10
2023-02-02T17:42:53.066Z,88.50
2023-02-02T17:45:28.355Z,88.00
2023-02-02T17:47:55.465Z,88.00
2023-02-02T17:50:22.987Z,88.10
2023-02-02T17:52:50.375Z,88.10
2023-02-02T17:55:27.395Z,88.10
2023-02-02T17:57:54.703Z,87.80
2023-02-02T18:00:25.876Z,88.00
2023-02-02T18:03:00.445Z,87.90
2023-02-02T18:05:27.743Z,87.90
2023-02-02T18:07:55.022Z,88.00
2023-02-02T18:10:26.362Z,88.00
2023-02-02T18:12:53.479Z,88.50
2023-02-02T18:15:21.440Z,88.00
2023-02-02T18:17:48.380Z,88.00
2023-02-02T18:20:16.774Z,88.10
2023-02-02T18:22:44.267Z,88.00
2023-02-02T18:25:11.697Z,88.10
2023-02-02T18:27:38.537Z,88.00
2023-02-02T18:30:07.210Z,88.10
2023-02-02T18:32:38.819Z,87.90
2023-02-02T18:35:11.009Z,87.50
2023-02-02T18:37:40.024Z,87.70
2023-02-02T18:40:08.122Z,87.60
2023-02-02T18:42:36.386Z,87.30
2023-02-02T18:45:05.297Z,87.20
2023-02-02T18:47:32.281Z,87.10
2023-02-02T18:49:59.228Z,86.90
2023-02-02T18:52:26.064Z,86.80
2023-02-02T18:54:52.885Z,86.50
2023-02-02T18:57:19.727Z,86.60
2023-02-02T18:59:46.618Z,86.30
2023-02-02T19:02:16.733Z,86.30
2023-02-02T19:05:04.291Z,86.20
2023-02-02T19:07:50.633Z,86.30
2023-02-02T19:10:18.512Z,86.20
2023-02-02T19:13:20.309Z,86.10
2023-02-02T19:15:49.762Z,85.70
2023-02-02T19:18:24.450Z,86.30
2023-02-02T19:20:52.773Z,86.40
2023-02-02T19:23:29.416Z,86.50
2023-02-02T19:25:56.640Z,86.50
2023-02-02T19:28:30.800Z,86.70
2023-02-02T19:31:01.798Z,86.60
2023-02-02T19:33:39.801Z,86.90
2023-02-02T19:36:28.091Z,86.80
2023-02-02T19:39:14.939Z,86.80
2023-02-02T19:41:43.197Z,86.60
2023-02-02T19:44:22.703Z,87.00
2023-02-02T19:46:52.807Z,86.80
2023-02-02T19:49:36.952Z,87.00
2023-02-02T19:52:04.457Z,86.70
2023-02-02T19:54:40.903Z,87.20
2023-02-02T19:57:13.685Z,86.90
2023-02-02T19:59:45.068Z,87.30
2023-02-02T20:02:36.774Z,87.50
2023-02-02T20:05:22.648Z,87.50
2023-02-02T20:08:24.307Z,87.30
2023-02-02T20:11:31.937Z,87.30
2023-02-02T20:14:30.161Z,87.00
2023-02-02T20:17:00.929Z,86.50
2023-02-02T20:19:35.266Z,87.50
2023-02-02T20:22:03.599Z,87.50
2023-02-02T20:24:42.393Z,87.60
2023-02-02T20:27:37.783Z,87.30
2023-02-02T20:30:30.671Z,87.20
2023-02-02T20:33:00.273Z,86.90
2023-02-02T20:35:42.794Z,87.60
2023-02-02T20:38:28.536Z,87.50
2023-02-02T20:40:56.688Z,87.00
2023-02-02T20:43:23.642Z,87.70
2023-02-02T20:45:51.398Z,87.70
2023-02-02T20:48:18.522Z,87.80
2023-02-02T20:50:46.811Z,87.80
2023-02-02T20:53:16.399Z,87.80
2023-02-02T20:55:44.743Z,87.80
2023-02-02T20:58:12.379Z,87.80
2023-02-02T21:00:39.729Z,87.80
2023-02-02T21:03:06.598Z,87.80
2023-02-02T21:05:33.502Z,87.90
2023-02-02T21:08:00.615Z,87.90
2023-02-02T21:10:28.273Z,87.90
2023-02-02T21:12:55.334Z,87.80
2023-02-02T21:15:22.765Z,87.80
2023-02-02T21:17:49.557Z,87.90
2023-02-02T21:20:16.645Z,87.80
2023-02-02T21:22:43.451Z,87.70
2023-02-02T21:25:11.110Z,87.70
2023-02-02T21:27:41.210Z,87.70
2023-02-02T21:30:13.982Z,87.70
2023-02-02T21:32:40.929Z,88.10
2023-02-02T21:35:08.162Z,87.70
2023-02-02T21:37:37.276Z,87.80
2023-02-02T21:40:15.101Z,87.80
2023-02-02T21:42:49.504Z,87.30
2023-02-02T21:45:35.896Z,87.70
2023-02-02T21:48:32.781Z,87.10
2023-02-02T21:51:17.329Z,87.60
2023-02-02T21:53:44.123Z,87.70
2023-02-02T21:56:28.453Z,87.80
2023-02-02T21:59:00.270Z,87.30
2023-02-02T22:01:39.616Z,87.70
2023-02-02T22:04:34.232Z,87.30
2023-02-02T22:07:14.018Z,86.70
2023-02-02T22:09:44.263Z,87.60
2023-02-02T22:12:23.509Z,87.60
2023-02-02T22:14:57.742Z,87.30
2023-02-02T22:17:41.985Z,87.80
2023-02-02T22:20:35.836Z,86.80
2023-02-02T22:23:03.517Z,86.80
2023-02-02T22:25:37.096Z,87.60
2023-02-02T22:28:26.047Z,87.50
2023-02-02T22:30:55.650Z,86.70
2023-02-02T22:33:26.254Z,87.60
2023-02-02T22:35:53.586Z,87.70
2023-02-02T22:38:24.429Z,87.60
2023-02-02T22:40:51.850Z,87.60
2023-02-02T22:43:21.076Z,86.30
2023-02-02T22:45:49.025Z,87.60
2023-02-02T22:48:16.923Z,87.70
2023-02-02T22:50:44.268Z,87.80
2023-02-02T22:53:12.382Z,88.00
2023-02-02T22:55:39.247Z,88.00
2023-02-02T22:58:06.069Z,88.00
2023-02-02T23:00:33.615Z,88.00
2023-02-02T23:03:00.906Z,88.10
2023-02-02T23:05:28.460Z,88.20
2023-02-02T23:07:56.494Z,88.20
2023-02-02T23:10:27.691Z,88.10
2023-02-02T23:12:58.632Z,87.90
2023-02-02T23:15:26.123Z,88.00
2023-02-02T23:17:54.029Z,88.10
2023-02-02T23:20:21.173Z,88.10
2023-02-02T23:22:47.956Z,87.90
2023-02-02T23:25:15.711Z,88.00
2023-02-02T23:27:43.041Z,88.00
2023-02-02T23:30:13.601Z,88.10
2023-02-02T23:32:41.253Z,88.00
2023-02-02T23:35:10.569Z,88.00
2023-02-02T23:37:37.934Z,88.00
2023-02-02T23:40:06.082Z,88.00
2023-02-02T23:42:33.679Z,88.00
2023-02-02T23:45:00.552Z,88.10
2023-02-02T23:47:27.642Z,88.10
2023-02-02T23:49:54.689Z,88.40
2023-02-02T23:52:21.617Z,88.00
2023-02-02T23:54:48.610Z,87.80
2023-02-02T23:57:15.525Z,88.10
2023-02-02T23:59:42.431Z,87.80
